createdAt,value
2022-09-17T00:00:50.258Z,0.00
2022-09-17T00:01:50.321Z,0.00
2022-09-17T00:02:50.306Z,0.00
2022-09-17T00:03:50.231Z,0.00
2022-09-17T00:04:50.222Z,0.00
2022-09-17T00:05:50.192Z,0.00
2022-09-17T00:07:11.181Z,0.00
2022-09-17T00:07:50.173Z,0.00
2022-09-17T00:08:50.183Z,0.00
2022-09-17T00:09:50.350Z,0.00
2022-09-17T00:10:50.146Z,0.00
2022-09-17T00:11:50.137Z,0.00
2022-09-17T00:12:50.126Z,0.00
2022-09-17T00:13:50.365Z,0.00
2022-09-17T00:14:50.111Z,0.00
2022-09-17T00:15:50.106Z,0.00
2022-09-17T00:16:50.076Z,0.00
2022-09-17T00:17:50.080Z,0.00
2022-09-17T00:18:50.056Z,0.00
2022-09-17T00:19:50.047Z,0.00
2022-09-17T00:20:50.234Z,0.00
2022-09-17T00:21:50.026Z,0.00
2022-09-17T00:22:50.007Z,0.00
2022-09-17T00:23:49.998Z,0.00
2022-09-17T00:24:49.974Z,0.00
2022-09-17T00:25:50.231Z,0.00
2022-09-17T00:26:49.946Z,0.00
2022-09-17T00:27:49.957Z,0.00
2022-09-17T00:28:49.927Z,0.00
2022-09-17T00:29:49.940Z,0.00
2022-09-17T00:30:49.900Z,0.00
2022-09-17T00:31:50.209Z,0.00
2022-09-17T00:32:49.891Z,0.00
2022-09-17T00:33:49.866Z,0.00
2022-09-17T00:34:49.869Z,0.00
2022-09-17T00:35:49.845Z,0.00
2022-09-17T00:36:50.107Z,0.00
2022-09-17T00:37:49.839Z,0.00
2022-09-17T00:38:50.007Z,0.00
2022-09-17T00:39:50.147Z,0.00
2022-09-17T00:40:49.790Z,0.00
2022-09-17T00:41:49.769Z,0.00
2022-09-17T00:42:49.792Z,0.00
2022-09-17T00:43:49.764Z,0.00
2022-09-17T00:44:50.046Z,0.00
2022-09-17T00:45:49.732Z,0.00
2022-09-17T00:46:49.766Z,0.00
2022-09-17T00:47:49.713Z,0.00
2022-09-17T00:48:49.703Z,0.00
2022-09-17T00:49:49.973Z,0.00
2022-09-17T00:50:49.681Z,0.00
2022-09-17T00:51:49.692Z,0.00
2022-09-17T00:52:49.650Z,0.00
2022-09-17T00:53:49.645Z,0.00
2022-09-17T00:54:49.624Z,0.00
2022-09-17T00:55:49.611Z,0.00
2022-09-17T00:56:49.601Z,0.00
2022-09-17T00:57:49.912Z,0.00
2022-09-17T00:58:49.583Z,0.00
2022-09-17T00:59:49.585Z,0.00
2022-09-17T01:00:49.599Z,0.00
2022-09-17T01:01:49.890Z,0.00
2022-09-17T01:02:49.536Z,0.00
2022-09-17T01:03:49.523Z,0.00
2022-09-17T01:04:49.524Z,0.00
2022-09-17T01:05:49.523Z,0.00
2022-09-17T01:06:49.716Z,0.00
2022-09-17T01:07:49.815Z,0.00
2022-09-17T01:08:49.512Z,0.00
2022-09-17T01:09:49.464Z,0.00
2022-09-17T01:10:49.438Z,0.00
2022-09-17T01:11:49.445Z,0.00
2022-09-17T01:12:49.416Z,0.00
2022-09-17T01:13:49.525Z,0.00
2022-09-17T01:14:49.385Z,0.00
2022-09-17T01:15:49.460Z,0.00
2022-09-17T01:16:49.378Z,0.00
2022-09-17T01:17:49.367Z,0.00
2022-09-17T01:18:49.659Z,0.00
2022-09-17T01:19:49.348Z,0.00
2022-09-17T01:20:49.328Z,0.00
2022-09-17T01:21:49.327Z,0.00
2022-09-17T01:22:49.377Z,0.00
2022-09-17T01:23:49.286Z,0.00
2022-09-17T01:24:49.298Z,0.00
2022-09-17T01:25:49.277Z,0.00
2022-09-17T01:26:49.261Z,0.00
2022-09-17T01:27:49.249Z,0.00
2022-09-17T01:28:49.239Z,0.00
2022-09-17T01:29:49.231Z,0.00
2022-09-17T01:30:49.232Z,0.00
2022-09-17T01:31:49.235Z,0.00
2022-09-17T01:32:49.169Z,0.00
2022-09-17T01:33:49.183Z,0.00
2022-09-17T01:34:49.164Z,0.00
2022-09-17T01:35:49.140Z,0.00
2022-09-17T01:36:49.374Z,0.00
2022-09-17T01:37:49.133Z,0.00
2022-09-17T01:38:49.140Z,0.00
2022-09-17T01:39:49.169Z,0.00
2022-09-17T01:40:49.101Z,0.00
2022-09-17T01:41:49.216Z,0.00
2022-09-17T01:42:49.070Z,0.00
2022-09-17T01:43:49.062Z,0.00
2022-09-17T01:44:49.064Z,0.00
2022-09-17T01:45:49.090Z,0.00
2022-09-17T01:46:49.336Z,0.00
2022-09-17T01:47:49.013Z,0.00
2022-09-17T01:48:48.996Z,0.00
2022-09-17T01:49:48.982Z,0.00
2022-09-17T01:50:48.972Z,0.00
2022-09-17T01:51:48.962Z,0.00
2022-09-17T01:52:49.073Z,0.00
2022-09-17T01:53:48.942Z,0.00
2022-09-17T01:54:48.937Z,0.00
2022-09-17T01:55:48.914Z,0.00
2022-09-17T01:56:48.918Z,0.00
2022-09-17T01:57:49.085Z,0.00
2022-09-17T01:58:48.888Z,0.00
2022-09-17T01:59:48.865Z,0.00
2022-09-17T02:00:48.904Z,0.00
2022-09-17T02:01:48.901Z,0.00
2022-09-17T02:02:48.835Z,0.00
2022-09-17T02:03:49.141Z,0.00
2022-09-17T02:04:48.815Z,0.00
2022-09-17T02:05:48.797Z,0.00
2022-09-17T02:06:49.095Z,0.00
2022-09-17T02:07:48.776Z,0.00
2022-09-17T02:08:48.779Z,0.00
2022-09-17T02:09:48.887Z,0.00
2022-09-17T02:10:48.740Z,0.00
2022-09-17T02:11:48.746Z,0.00
2022-09-17T02:12:48.940Z,0.00
2022-09-17T02:13:48.709Z,0.00
2022-09-17T02:14:48.689Z,0.00
2022-09-17T02:15:49.030Z,0.00
2022-09-17T02:16:48.692Z,0.00
2022-09-17T02:17:48.669Z,0.00
2022-09-17T02:18:48.800Z,0.00
2022-09-17T02:19:48.653Z,0.00
2022-09-17T02:20:48.621Z,0.00
2022-09-17T02:21:48.907Z,0.00
2022-09-17T02:22:48.616Z,0.00
2022-09-17T02:23:48.633Z,0.00
2022-09-17T02:24:48.593Z,0.00
2022-09-17T02:25:48.583Z,0.00
2022-09-17T02:26:48.571Z,0.00
2022-09-17T02:27:48.825Z,0.00
2022-09-17T02:28:48.543Z,0.00
2022-09-17T02:29:48.520Z,0.00
2022-09-17T02:30:48.528Z,0.00
2022-09-17T02:31:48.562Z,0.00
2022-09-17T02:32:48.495Z,0.00
2022-09-17T02:33:48.773Z,0.00
2022-09-17T02:34:48.581Z,0.00
2022-09-17T02:35:48.452Z,0.00
2022-09-17T02:36:48.450Z,0.00
2022-09-17T02:37:48.424Z,0.00
2022-09-17T02:38:48.765Z,0.00
2022-09-17T02:39:48.404Z,0.00
2022-09-17T02:40:48.393Z,0.00
2022-09-17T02:41:48.398Z,0.00
2022-09-17T02:42:48.364Z,0.00
2022-09-17T02:43:48.376Z,0.00
2022-09-17T02:44:48.687Z,0.00
2022-09-17T02:45:48.346Z,0.00
2022-09-17T02:46:48.388Z,0.00
2022-09-17T02:47:48.638Z,0.00
2022-09-17T02:48:48.295Z,0.00
2022-09-17T02:49:48.307Z,0.00
2022-09-17T02:50:48.289Z,0.00
2022-09-17T02:51:48.266Z,0.00
2022-09-17T02:52:48.691Z,0.00
2022-09-17T02:53:48.365Z,0.00
2022-09-17T02:54:48.249Z,0.00
2022-09-17T02:55:48.657Z,0.00
2022-09-17T02:56:48.221Z,0.00
2022-09-17T02:57:48.208Z,0.00
2022-09-17T02:58:48.508Z,0.00
2022-09-17T02:59:48.167Z,0.00
2022-09-17T03:00:48.201Z,0.00
2022-09-17T03:01:48.230Z,0.00
2022-09-17T03:02:48.138Z,0.00
2022-09-17T03:03:48.118Z,0.00
2022-09-17T03:04:48.128Z,0.00
2022-09-17T03:05:48.122Z,0.00
2022-09-17T03:06:48.112Z,0.00
2022-09-17T03:07:48.121Z,0.00
2022-09-17T03:08:48.164Z,0.00
2022-09-17T03:09:48.081Z,0.00
2022-09-17T03:10:48.040Z,0.00
2022-09-17T03:11:48.030Z,0.00
2022-09-17T03:12:48.022Z,0.00
2022-09-17T03:13:48.330Z,0.00
2022-09-17T03:14:48.015Z,0.00
2022-09-17T03:15:48.026Z,0.00
2022-09-17T03:16:47.993Z,0.00
2022-09-17T03:17:52.582Z,0.00
2022-09-17T03:18:49.141Z,0.00
2022-09-17T03:19:47.967Z,0.00
2022-09-17T03:20:47.951Z,0.00
2022-09-17T03:21:47.926Z,0.00
2022-09-17T03:22:48.176Z,0.00
2022-09-17T03:23:48.008Z,0.00
2022-09-17T03:24:47.882Z,0.00
2022-09-17T03:25:48.104Z,0.00
2022-09-17T03:26:47.875Z,0.00
2022-09-17T03:27:47.859Z,0.00
2022-09-17T03:28:47.834Z,0.00
2022-09-17T03:29:47.837Z,0.00
2022-09-17T03:30:47.829Z,0.00
2022-09-17T03:31:48.205Z,0.00
2022-09-17T03:32:47.792Z,0.00
2022-09-17T03:33:47.789Z,0.00
2022-09-17T03:34:47.774Z,0.00
2022-09-17T03:35:47.745Z,0.00
2022-09-17T03:36:47.758Z,0.00
2022-09-17T03:37:47.999Z,0.00
2022-09-17T03:38:47.718Z,0.00
2022-09-17T03:39:47.719Z,0.00
2022-09-17T03:40:47.929Z,0.00
2022-09-17T03:41:47.687Z,0.00
2022-09-17T03:42:47.687Z,0.00
2022-09-17T03:43:47.656Z,0.00
2022-09-17T03:44:47.657Z,0.00
2022-09-17T03:45:47.927Z,0.00
2022-09-17T03:46:47.703Z,0.00
2022-09-17T03:47:47.608Z,0.00
2022-09-17T03:48:47.856Z,0.00
2022-09-17T03:49:47.603Z,0.00
2022-09-17T03:50:47.599Z,0.00
2022-09-17T03:51:47.579Z,0.00
2022-09-17T03:52:47.579Z,0.00
2022-09-17T03:53:47.560Z,0.00
2022-09-17T03:54:47.548Z,0.00
2022-09-17T03:55:54.546Z,0.00
2022-09-17T03:56:47.524Z,0.00
2022-09-17T03:57:47.515Z,0.00
2022-09-17T03:58:47.798Z,0.00
2022-09-17T03:59:47.475Z,0.00
2022-09-17T04:00:47.467Z,0.00
2022-09-17T04:01:47.606Z,0.00
2022-09-17T04:02:47.507Z,0.00
2022-09-17T04:03:47.760Z,0.00
2022-09-17T04:04:47.412Z,0.00
2022-09-17T04:05:47.414Z,0.00
2022-09-17T04:06:47.404Z,0.00
2022-09-17T04:07:47.380Z,0.00
2022-09-17T04:08:47.632Z,0.00
2022-09-17T04:09:47.359Z,0.00
2022-09-17T04:10:47.357Z,0.00
2022-09-17T04:11:47.331Z,0.00
2022-09-17T04:12:47.334Z,0.00
2022-09-17T04:13:47.629Z,0.00
2022-09-17T04:14:47.302Z,0.00
2022-09-17T04:15:47.328Z,0.00
2022-09-17T04:16:47.274Z,0.00
2022-09-17T04:17:47.288Z,0.00
2022-09-17T04:18:47.269Z,0.00
2022-09-17T04:19:47.536Z,0.00
2022-09-17T04:20:47.237Z,0.00
2022-09-17T04:21:47.521Z,0.00
2022-09-17T04:22:47.205Z,0.00
2022-09-17T04:23:47.193Z,0.00
2022-09-17T04:24:47.183Z,0.00
2022-09-17T04:25:47.185Z,0.00
2022-09-17T04:26:47.165Z,0.00
2022-09-17T04:27:47.445Z,0.00
2022-09-17T04:28:47.177Z,0.00
2022-09-17T04:29:47.124Z,0.00
2022-09-17T04:30:47.432Z,0.00
2022-09-17T04:31:47.143Z,0.00
2022-09-17T04:32:47.100Z,0.00
2022-09-17T04:33:47.077Z,0.00
2022-09-17T04:34:47.079Z,0.00
2022-09-17T04:35:47.054Z,0.00
2022-09-17T04:36:47.311Z,0.00
2022-09-17T04:37:47.042Z,0.00
2022-09-17T04:38:47.038Z,0.00
2022-09-17T04:39:47.007Z,0.00
2022-09-17T04:40:47.013Z,0.00
2022-09-17T04:41:47.308Z,0.00
2022-09-17T04:42:46.981Z,0.00
2022-09-17T04:43:47.045Z,0.00
2022-09-17T04:44:46.949Z,0.00
2022-09-17T04:45:46.952Z,0.00
2022-09-17T04:46:46.989Z,0.00
2022-09-17T04:47:47.219Z,0.00
2022-09-17T04:48:46.900Z,0.00
2022-09-17T04:49:47.161Z,0.00
2022-09-17T04:50:46.894Z,0.00
2022-09-17T04:51:46.875Z,0.00
2022-09-17T04:52:46.874Z,0.00
2022-09-17T04:53:46.842Z,0.00
2022-09-17T04:54:46.845Z,0.00
2022-09-17T04:55:47.141Z,0.00
2022-09-17T04:56:46.812Z,0.00
2022-09-17T04:57:46.815Z,0.00
2022-09-17T04:58:46.831Z,0.00
2022-09-17T04:59:46.787Z,0.00
2022-09-17T05:00:46.825Z,0.00
2022-09-17T05:01:46.807Z,0.00
2022-09-17T05:02:46.742Z,0.00
2022-09-17T05:03:46.722Z,0.00
2022-09-17T05:04:46.713Z,0.00
2022-09-17T05:05:46.715Z,0.00
2022-09-17T05:06:46.727Z,0.00
2022-09-17T05:07:46.674Z,0.00
2022-09-17T05:08:46.672Z,0.00
2022-09-17T05:09:46.654Z,0.00
2022-09-17T05:10:46.667Z,0.00
2022-09-17T05:11:46.647Z,0.00
2022-09-17T05:12:46.646Z,0.00
2022-09-17T05:13:46.684Z,0.00
2022-09-17T05:14:46.605Z,0.00
2022-09-17T05:15:46.648Z,0.00
2022-09-17T05:16:46.588Z,0.00
2022-09-17T05:17:46.618Z,0.00
2022-09-17T05:18:46.578Z,0.00
2022-09-17T05:19:46.760Z,0.00
2022-09-17T05:20:46.536Z,0.00
2022-09-17T05:21:46.516Z,0.00
2022-09-17T05:22:46.528Z,0.00
2022-09-17T05:23:46.509Z,0.00
2022-09-17T05:24:46.787Z,0.00
2022-09-17T05:25:46.482Z,0.00
2022-09-17T05:26:46.458Z,5.62
2022-09-17T05:27:46.446Z,5.62
2022-09-17T05:28:46.748Z,5.62
2022-09-17T05:29:46.433Z,5.62
2022-09-17T05:30:46.418Z,5.62
2022-09-17T05:31:46.447Z,5.62
2022-09-17T05:32:46.402Z,5.62
2022-09-17T05:33:46.379Z,5.62
2022-09-17T05:34:46.639Z,5.62
2022-09-17T05:35:46.361Z,5.62
2022-09-17T05:36:46.353Z,5.62
2022-09-17T05:37:46.342Z,5.62
2022-09-17T05:38:46.348Z,5.62
2022-09-17T05:39:46.635Z,11.25
2022-09-17T05:40:46.314Z,11.25
2022-09-17T05:41:46.281Z,11.25
2022-09-17T05:42:46.294Z,11.25
2022-09-17T05:43:46.260Z,11.25
2022-09-17T05:44:46.264Z,11.25
2022-09-17T05:45:46.553Z,11.25
2022-09-17T05:46:46.249Z,16.88
2022-09-17T05:47:46.234Z,16.88
2022-09-17T05:48:46.218Z,16.88
2022-09-17T05:49:46.194Z,16.88
2022-09-17T05:50:46.180Z,16.88
2022-09-17T05:51:46.198Z,16.88
2022-09-17T05:52:46.154Z,22.50
2022-09-17T05:53:46.272Z,22.50
2022-09-17T05:54:46.133Z,22.50
2022-09-17T05:55:46.115Z,22.50
2022-09-17T05:56:46.133Z,22.50
2022-09-17T05:57:46.117Z,22.50
2022-09-17T05:58:46.156Z,22.50
2022-09-17T05:59:46.074Z,22.50
2022-09-17T06:00:46.078Z,22.50
2022-09-17T06:01:46.114Z,16.88
2022-09-17T06:02:46.127Z,16.88
2022-09-17T06:03:46.132Z,16.88
2022-09-17T06:04:46.016Z,16.88
2022-09-17T06:05:46.027Z,16.88
2022-09-17T06:06:45.994Z,16.88
2022-09-17T06:07:45.991Z,16.88
2022-09-17T06:08:46.057Z,16.88
2022-09-17T06:09:45.955Z,16.88
2022-09-17T06:10:45.947Z,16.88
2022-09-17T06:11:45.945Z,16.88
2022-09-17T06:12:45.941Z,16.88
2022-09-17T06:13:45.907Z,22.50
2022-09-17T06:14:46.127Z,22.50
2022-09-17T06:15:45.901Z,22.50
2022-09-17T06:16:45.920Z,22.50
2022-09-17T06:17:45.867Z,22.50
2022-09-17T06:18:45.873Z,22.50
2022-09-17T06:19:46.137Z,22.50
2022-09-17T06:20:45.831Z,22.50
2022-09-17T06:21:45.830Z,22.50
2022-09-17T06:22:45.823Z,22.50
2022-09-17T06:23:45.805Z,22.50
2022-09-17T06:24:45.794Z,22.50
2022-09-17T06:25:45.817Z,22.50
2022-09-17T06:26:45.774Z,16.88
2022-09-17T06:27:45.744Z,22.50
2022-09-17T06:28:45.731Z,22.50
2022-09-17T06:29:45.737Z,16.88
2022-09-17T06:30:45.725Z,16.88
2022-09-17T06:31:46.061Z,16.88
2022-09-17T06:32:45.705Z,16.88
2022-09-17T06:33:45.684Z,16.88
2022-09-17T06:34:45.995Z,11.25
2022-09-17T06:35:45.676Z,11.25
2022-09-17T06:36:45.657Z,11.25
2022-09-17T06:37:45.646Z,5.62
2022-09-17T06:38:45.657Z,11.25
2022-09-17T06:39:45.618Z,11.25
2022-09-17T06:43:21.227Z,11.25
2022-09-17T06:44:07.555Z,11.25
2022-09-17T06:45:11.078Z,11.25
2022-09-17T06:46:08.577Z,11.25
2022-09-17T06:47:07.529Z,11.25
2022-09-17T06:48:07.826Z,11.25
2022-09-17T06:49:07.493Z,11.25
2022-09-17T06:50:07.483Z,11.25
2022-09-17T06:51:07.470Z,11.25
2022-09-17T06:52:07.470Z,11.25
2022-09-17T06:53:07.460Z,11.25
2022-09-17T06:54:07.768Z,11.25
2022-09-17T06:55:07.439Z,16.88
2022-09-17T06:56:07.423Z,16.88
2022-09-17T06:57:07.417Z,16.88
2022-09-17T06:58:07.397Z,16.88
2022-09-17T06:59:07.392Z,22.50
2022-09-17T07:00:07.401Z,28.12
2022-09-17T07:01:07.419Z,33.75
2022-09-17T07:02:07.424Z,33.75
2022-09-17T07:03:07.639Z,33.75
2022-09-17T07:04:07.331Z,33.75
2022-09-17T07:05:07.300Z,33.75
2022-09-17T07:06:07.289Z,33.75
2022-09-17T07:07:07.293Z,28.12
2022-09-17T07:08:07.574Z,28.12
2022-09-17T07:09:10.869Z,28.12
2022-09-17T07:10:07.255Z,28.12
2022-09-17T07:11:07.244Z,33.75
2022-09-17T07:12:07.220Z,28.12
2022-09-17T07:13:07.211Z,33.75
2022-09-17T07:14:07.213Z,28.12
2022-09-17T07:15:07.202Z,28.12
2022-09-17T07:16:07.264Z,28.12
2022-09-17T07:17:07.176Z,22.50
2022-09-17T07:18:07.166Z,22.50
2022-09-17T07:19:08.974Z,22.50
2022-09-17T07:20:07.133Z,22.50
2022-09-17T07:21:07.128Z,22.50
2022-09-17T07:22:07.116Z,22.50
2022-09-17T07:23:07.122Z,22.50
2022-09-17T07:24:07.073Z,22.50
2022-09-17T07:25:07.086Z,16.88
2022-09-17T07:26:07.287Z,16.88
2022-09-17T07:27:07.052Z,16.88
2022-09-17T07:28:07.040Z,16.88
2022-09-17T07:29:07.036Z,16.88
2022-09-17T07:30:07.005Z,22.50
2022-09-17T07:31:07.087Z,22.50
2022-09-17T07:32:07.011Z,28.12
2022-09-17T07:33:06.987Z,33.75
2022-09-17T07:34:06.973Z,22.50
2022-09-17T07:35:06.947Z,28.12
2022-09-17T07:36:07.153Z,33.75
2022-09-17T07:37:06.938Z,39.38
2022-09-17T07:38:06.923Z,45.00
2022-09-17T07:39:06.921Z,39.38
2022-09-17T07:40:06.951Z,33.75
2022-09-17T07:41:06.908Z,50.62
2022-09-17T07:42:06.911Z,39.38
2022-09-17T07:43:06.869Z,39.38
2022-09-17T07:44:06.846Z,45.00
2022-09-17T07:45:06.829Z,39.38
2022-09-17T07:46:06.908Z,22.50
2022-09-17T07:47:06.822Z,22.50
2022-09-17T07:48:07.121Z,22.50
2022-09-17T07:49:06.793Z,22.50
2022-09-17T07:50:06.786Z,22.50
2022-09-17T07:51:06.760Z,28.12
2022-09-17T07:52:06.740Z,39.38
2022-09-17T07:53:06.773Z,39.38
2022-09-17T07:54:06.720Z,33.75
2022-09-17T07:55:13.494Z,45.00
2022-09-17T07:56:11.550Z,45.00
2022-09-17T07:57:07.705Z,50.62
2022-09-17T07:58:06.995Z,45.00
2022-09-17T07:59:27.662Z,45.00
2022-09-17T08:00:06.653Z,56.25
2022-09-17T08:01:06.664Z,61.88
2022-09-17T08:02:06.955Z,56.25
2022-09-17T08:03:06.720Z,56.25
2022-09-17T08:04:06.602Z,50.62
2022-09-17T08:05:06.615Z,50.62
2022-09-17T08:06:06.604Z,45.00
2022-09-17T08:07:06.589Z,39.38
2022-09-17T08:08:06.883Z,39.38
2022-09-17T08:09:06.567Z,39.38
2022-09-17T08:10:06.560Z,39.38
2022-09-17T08:11:06.532Z,33.75
2022-09-17T08:12:06.537Z,33.75
2022-09-17T08:13:06.835Z,28.12
2022-09-17T08:14:06.495Z,28.12
2022-09-17T08:15:06.484Z,28.12
2022-09-17T08:16:06.528Z,28.12
2022-09-17T08:17:06.456Z,28.12
2022-09-17T08:18:06.488Z,39.38
2022-09-17T08:19:06.451Z,45.00
2022-09-17T08:20:06.426Z,56.25
2022-09-17T08:21:06.424Z,33.75
2022-09-17T08:22:06.420Z,50.62
2022-09-17T08:23:06.388Z,39.38
2022-09-17T08:24:06.702Z,33.75
2022-09-17T08:25:06.366Z,33.75
2022-09-17T08:26:06.379Z,28.12
2022-09-17T08:27:06.343Z,33.75
2022-09-17T08:28:06.351Z,33.75
2022-09-17T08:29:06.332Z,33.75
2022-09-17T08:30:06.338Z,45.00
2022-09-17T08:31:06.350Z,45.00
2022-09-17T08:32:06.300Z,45.00
2022-09-17T08:33:06.270Z,56.25
2022-09-17T08:34:06.282Z,45.00
2022-09-17T08:35:06.262Z,45.00
2022-09-17T08:36:06.501Z,45.00
2022-09-17T08:37:06.220Z,50.62
2022-09-17T08:38:06.212Z,50.62
2022-09-17T08:39:06.214Z,50.62
2022-09-17T08:40:06.350Z,50.62
2022-09-17T08:41:06.197Z,50.62
2022-09-17T08:42:06.183Z,50.62
2022-09-17T08:43:06.165Z,28.12
2022-09-17T08:44:06.142Z,33.75
2022-09-17T08:45:27.462Z,45.00
2022-09-17T08:46:06.132Z,45.00
2022-09-17T08:47:06.128Z,45.00
2022-09-17T08:48:06.108Z,45.00
2022-09-17T08:49:06.083Z,50.62
2022-09-17T08:50:06.067Z,61.88
2022-09-17T08:51:08.533Z,61.88
2022-09-17T08:52:06.068Z,56.25
2022-09-17T08:53:06.056Z,56.25
2022-09-17T08:54:06.037Z,28.12
2022-09-17T08:55:06.235Z,28.12
2022-09-17T08:56:05.995Z,56.25
2022-09-17T08:57:06.015Z,84.38
2022-09-17T08:58:05.989Z,33.75
2022-09-17T08:59:05.967Z,33.75
2022-09-17T09:00:05.956Z,73.12
2022-09-17T09:01:05.959Z,39.38
2022-09-17T09:02:06.038Z,50.62
2022-09-17T09:03:06.250Z,45.00
2022-09-17T09:04:05.897Z,56.25
2022-09-17T09:05:05.888Z,39.38
2022-09-17T09:06:10.548Z,45.00
2022-09-17T09:07:06.872Z,56.25
2022-09-17T09:08:05.850Z,28.12
2022-09-17T09:09:05.881Z,61.88
2022-09-17T09:10:05.844Z,45.00
2022-09-17T09:11:05.822Z,28.12
2022-09-17T09:12:05.800Z,33.75
2022-09-17T09:13:05.792Z,33.75
2022-09-17T09:14:05.815Z,61.88
2022-09-17T09:15:05.803Z,73.12
2022-09-17T09:16:06.175Z,61.88
2022-09-17T09:17:05.784Z,56.25
2022-09-17T09:18:05.762Z,45.00
2022-09-17T09:19:06.322Z,67.50
2022-09-17T09:20:05.734Z,67.50
2022-09-17T09:21:06.038Z,50.62
2022-09-17T09:22:05.703Z,73.12
2022-09-17T09:23:05.674Z,73.12
2022-09-17T09:24:05.663Z,78.75
2022-09-17T09:25:05.913Z,78.75
2022-09-17T09:26:05.639Z,67.50
2022-09-17T09:27:05.624Z,33.75
2022-09-17T09:28:05.614Z,61.88
2022-09-17T09:29:05.842Z,50.62
2022-09-17T09:30:05.595Z,50.62
2022-09-17T09:31:05.667Z,61.88
2022-09-17T09:32:15.442Z,56.25
2022-09-17T09:33:06.569Z,39.38
2022-09-17T09:34:05.569Z,61.88
2022-09-17T09:35:05.535Z,39.38
2022-09-17T09:36:05.516Z,33.75
2022-09-17T09:37:05.544Z,61.88
2022-09-17T09:38:05.511Z,33.75
2022-09-17T09:39:05.484Z,39.38
2022-09-17T09:40:05.518Z,39.38
2022-09-17T09:41:05.466Z,73.12
2022-09-17T09:42:05.480Z,56.25
2022-09-17T09:43:05.453Z,33.75
2022-09-17T09:44:05.869Z,78.75
2022-09-17T09:45:05.721Z,50.62
2022-09-17T09:46:05.398Z,50.62
2022-09-17T09:47:05.409Z,84.38
2022-09-17T09:48:05.463Z,56.25
2022-09-17T09:49:05.415Z,78.75
2022-09-17T09:50:05.349Z,61.88
2022-09-17T09:51:06.910Z,50.62
2022-09-17T09:52:05.364Z,73.12
2022-09-17T09:53:05.320Z,84.38
2022-09-17T09:54:05.322Z,73.12
2022-09-17T09:55:05.313Z,73.12
2022-09-17T09:56:12.290Z,73.12
2022-09-17T09:57:05.283Z,84.38
2022-09-17T09:58:05.293Z,90.00
2022-09-17T09:59:05.266Z,56.25
2022-09-17T10:00:05.252Z,61.88
2022-09-17T10:01:05.232Z,78.75
2022-09-17T10:02:05.342Z,61.88
2022-09-17T10:03:05.584Z,90.00
2022-09-17T10:04:05.205Z,84.38
2022-09-17T10:05:05.206Z,67.50
2022-09-17T10:06:05.190Z,56.25
2022-09-17T10:07:05.163Z,78.75
2022-09-17T10:08:05.156Z,78.75
2022-09-17T10:09:05.462Z,95.62
2022-09-17T10:10:05.135Z,84.38
2022-09-17T10:11:05.120Z,84.38
2022-09-17T10:12:05.120Z,118.12
2022-09-17T10:13:05.097Z,67.50
2022-09-17T10:14:09.277Z,50.62
2022-09-17T10:15:05.099Z,39.38
2022-09-17T10:16:05.073Z,56.25
2022-09-17T10:17:05.055Z,73.12
2022-09-17T10:18:05.080Z,56.25
2022-09-17T10:19:05.024Z,39.38
2022-09-17T10:20:04.997Z,33.75
2022-09-17T10:21:05.070Z,73.12
2022-09-17T10:22:04.990Z,33.75
2022-09-17T10:23:04.968Z,33.75
2022-09-17T10:24:04.995Z,28.12
2022-09-17T10:25:04.961Z,67.50
2022-09-17T10:26:04.943Z,73.12
2022-09-17T10:27:05.236Z,73.12
2022-09-17T10:28:04.909Z,61.88
2022-09-17T10:29:04.915Z,84.38
2022-09-17T10:30:04.931Z,73.12
2022-09-17T10:31:08.712Z,61.88
2022-09-17T10:32:04.874Z,73.12
2022-09-17T10:33:05.084Z,90.00
2022-09-17T10:34:04.853Z,106.88
2022-09-17T10:35:04.851Z,95.62
2022-09-17T10:36:04.820Z,73.12
2022-09-17T10:37:04.822Z,73.12
2022-09-17T10:38:05.004Z,78.75
2022-09-17T10:39:04.782Z,78.75
2022-09-17T10:40:04.874Z,90.00
2022-09-17T10:41:04.773Z,90.00
2022-09-17T10:42:04.747Z,78.75
2022-09-17T10:43:05.027Z,106.88
2022-09-17T10:44:04.763Z,73.12
2022-09-17T10:45:04.729Z,67.50
2022-09-17T10:46:04.746Z,123.75
2022-09-17T10:47:04.762Z,101.25
2022-09-17T10:48:04.674Z,84.38
2022-09-17T10:49:04.787Z,95.62
2022-09-17T10:50:04.666Z,84.38
2022-09-17T10:51:04.969Z,78.75
2022-09-17T10:52:04.634Z,56.25
2022-09-17T10:53:04.629Z,61.88
2022-09-17T10:54:04.612Z,61.88
2022-09-17T10:55:04.597Z,67.50
2022-09-17T10:56:04.586Z,73.12
2022-09-17T10:57:04.603Z,50.62
2022-09-17T10:58:04.568Z,39.38
2022-09-17T10:59:04.556Z,33.75
2022-09-17T11:00:04.550Z,39.38
2022-09-17T11:01:04.540Z,39.38
2022-09-17T11:02:04.631Z,50.62
2022-09-17T11:03:04.518Z,50.62
2022-09-17T11:04:04.503Z,61.88
2022-09-17T11:05:04.495Z,61.88
2022-09-17T11:06:04.480Z,67.50
2022-09-17T11:07:04.461Z,84.38
2022-09-17T11:08:04.454Z,90.00
2022-09-17T11:09:04.454Z,84.38
2022-09-17T11:10:04.434Z,73.12
2022-09-17T11:11:04.412Z,61.88
2022-09-17T11:12:04.405Z,50.62
2022-09-17T11:13:04.442Z,45.00
2022-09-17T11:14:04.373Z,45.00
2022-09-17T11:15:10.325Z,39.38
2022-09-17T11:16:07.359Z,50.62
2022-09-17T11:17:04.331Z,78.75
2022-09-17T11:18:04.336Z,61.88
2022-09-17T11:19:04.513Z,67.50
2022-09-17T11:20:04.316Z,61.88
2022-09-17T11:21:04.285Z,84.38
2022-09-17T11:22:04.605Z,67.50
2022-09-17T11:23:04.277Z,67.50
2022-09-17T11:24:04.266Z,90.00
2022-09-17T11:25:04.240Z,101.25
2022-09-17T11:26:04.240Z,118.12
2022-09-17T11:27:04.227Z,90.00
2022-09-17T11:28:04.485Z,56.25
2022-09-17T11:29:04.202Z,39.38
2022-09-17T11:30:04.209Z,39.38
2022-09-17T11:31:04.528Z,39.38
2022-09-17T11:32:04.180Z,28.12
2022-09-17T11:33:04.157Z,28.12
2022-09-17T11:34:04.177Z,28.12
2022-09-17T11:35:04.409Z,33.75
2022-09-17T11:36:04.141Z,50.62
2022-09-17T11:37:04.112Z,56.25
2022-09-17T11:38:04.100Z,50.62
2022-09-17T11:39:04.069Z,50.62
2022-09-17T11:40:04.093Z,45.00
2022-09-17T11:41:04.279Z,45.00
2022-09-17T11:42:04.051Z,33.75
2022-09-17T11:43:04.042Z,28.12
2022-09-17T11:44:04.023Z,33.75
2022-09-17T11:45:03.999Z,33.75
2022-09-17T11:46:04.413Z,39.38
2022-09-17T11:47:04.003Z,50.62
2022-09-17T11:48:03.968Z,39.38
2022-09-17T11:49:03.975Z,28.12
2022-09-17T11:50:03.941Z,50.62
2022-09-17T11:51:04.201Z,67.50
2022-09-17T11:52:04.244Z,67.50
2022-09-17T11:53:03.911Z,67.50
2022-09-17T11:54:03.910Z,67.50
2022-09-17T11:55:03.892Z,67.50
2022-09-17T11:56:03.885Z,61.88
2022-09-17T11:57:07.695Z,61.88
2022-09-17T11:58:04.865Z,61.88
2022-09-17T11:59:03.870Z,61.88
2022-09-17T12:00:03.834Z,67.50
2022-09-17T12:01:03.827Z,61.88
2022-09-17T12:02:03.868Z,67.50
2022-09-17T12:03:04.127Z,67.50
2022-09-17T12:04:03.774Z,67.50
2022-09-17T12:05:03.798Z,73.12
2022-09-17T12:06:03.767Z,61.88
2022-09-17T12:07:03.745Z,67.50
2022-09-17T12:08:03.735Z,67.50
2022-09-17T12:09:04.050Z,73.12
2022-09-17T12:10:03.707Z,61.88
2022-09-17T12:11:03.705Z,73.12
2022-09-17T12:12:03.703Z,73.12
2022-09-17T12:13:03.667Z,73.12
2022-09-17T12:14:03.678Z,78.75
2022-09-17T12:15:03.958Z,90.00
2022-09-17T12:16:03.692Z,95.62
2022-09-17T12:17:03.643Z,101.25
2022-09-17T12:18:30.547Z,112.50
2022-09-17T12:19:04.611Z,123.75
2022-09-17T12:20:03.920Z,123.75
2022-09-17T12:21:03.578Z,118.12
2022-09-17T12:22:03.576Z,112.50
2022-09-17T12:23:03.550Z,129.38
2022-09-17T12:24:03.553Z,140.62
2022-09-17T12:25:03.545Z,106.88
2022-09-17T12:26:03.836Z,84.38
2022-09-17T12:27:03.500Z,67.50
2022-09-17T12:28:03.492Z,50.62
2022-09-17T12:29:03.496Z,39.38
2022-09-17T12:30:03.489Z,39.38
2022-09-17T12:31:03.496Z,45.00
2022-09-17T12:32:03.695Z,61.88
2022-09-17T12:33:03.456Z,73.12
2022-09-17T12:34:03.445Z,56.25
2022-09-17T12:35:03.664Z,45.00
2022-09-17T12:36:04.958Z,45.00
2022-09-17T12:37:03.408Z,73.12
2022-09-17T12:38:03.397Z,73.12
2022-09-17T12:39:03.647Z,61.88
2022-09-17T12:40:03.493Z,50.62
2022-09-17T12:41:03.635Z,39.38
2022-09-17T12:42:03.354Z,33.75
2022-09-17T12:43:03.315Z,39.38
2022-09-17T12:44:03.305Z,45.00
2022-09-17T12:45:03.299Z,45.00
2022-09-17T12:46:03.607Z,39.38
2022-09-17T12:47:03.354Z,39.38
2022-09-17T12:48:03.270Z,56.25
2022-09-17T12:49:03.245Z,78.75
2022-09-17T12:50:03.235Z,95.62
2022-09-17T12:51:03.218Z,84.38
2022-09-17T12:52:03.208Z,78.75
2022-09-17T12:53:03.520Z,90.00
2022-09-17T12:54:03.201Z,90.00
2022-09-17T12:55:03.170Z,61.88
2022-09-17T12:56:03.309Z,123.75
2022-09-17T12:57:03.139Z,123.75
2022-09-17T12:58:03.152Z,118.12
2022-09-17T12:59:03.142Z,123.75
2022-09-17T13:00:07.657Z,118.12
2022-09-17T13:01:04.134Z,106.88
2022-09-17T13:02:03.175Z,78.75
2022-09-17T13:03:03.084Z,84.38
2022-09-17T13:04:03.089Z,78.75
2022-09-17T13:05:03.383Z,78.75